Latest Weather Observations for Daly Waters

IDD60801

Issued at 6:31 am CST Friday 12 February 2016 (issued every 30 minutes, with the page automatically refreshed every 10 minutes)

About weather observations | Map of weather stations | Latest weather observations for NT | Other Formats
Station Details ID: 014626 Name: DALY WATERS AIRSTRIP Lat: -16.26 Lon: 133.38 Height: 209.84 m
Data from the previous 72 hours. | See also: Recent months at Daly Waters
Date/Time
CST
Temp
°C
App
Temp
°C
Dew
Point
Rel
Hum
%
Delta-T
°C
Wind Press
QNH
hPa
Press
MSL
hPa
Rain
since 9 am
mm
Dir
 
Spd
km/h
Gust
km/h
Spd
kts
Gust
kts
12/06:30am 25.4 30.7 23.1 87 1.6 CALM 0 0 0 0 1010.2 1008.6 0.0
12/06:00am 25.5 30.7 22.8 85 1.8 CALM 0 0 0 0 1009.6 1008.0 0.0
12/05:30am 25.6 30.9 23.1 86 1.7 CALM 0 0 0 0 1009.1 1007.5 0.0
12/05:00am 25.4 30.6 22.9 86 1.7 CALM 0 0 0 0 1008.5 1007.0 0.0
12/04:30am 25.3 30.4 22.6 85 1.8 CALM 0 0 0 0 1008.3 1006.8 0.0
12/04:00am 25.3 30.5 22.8 86 1.7 CALM 0 0 0 0 1008.3 1006.8 0.0
12/03:30am 25.2 30.3 22.7 86 1.7 CALM 0 0 0 0 1008.2 1006.7 0.0
12/03:00am 25.1 30.2 22.6 86 1.7 CALM 0 0 0 0 1008.2 1006.7 0.0
12/02:30am 25.2 30.3 22.7 86 1.7 CALM 0 0 0 0 1008.3 1006.8 0.0
12/02:00am 25.1 30.0 22.4 85 1.8 CALM 0 2 0 1 1008.5 1007.0 0.0
12/01:30am 25.1 29.2 22.2 84 2.0 ESE 4 6 2 3 1008.9 1007.3 0.0
12/01:00am 25.1 29.6 22.2 84 2.0 S 2 6 1 3 1009.1 1007.5 0.0
12/12:30am 25.5 30.3 22.2 82 2.2 CALM 0 0 0 0 1009.4 1007.8 0.0
12/12:00am 25.5 29.3 21.6 79 2.6 N 4 6 2 3 1009.9 1008.3 0.0
 
Date/Time
CST
Temp
°C
App
Temp
°C
Dew
Point
Rel
Hum
%
Delta-T
°C
Wind Press
QNH
hPa
Press
MSL
hPa
Rain
since 9 am
mm
Dir
 
Spd
km/h
Gust
km/h
Spd
kts
Gust
kts
11/11:30pm 25.9 28.6 21.3 76 3.1 NE 9 15 5 8 1010.3 1008.7 0.0
11/11:00pm 26.4 29.2 21.6 75 3.2 NE 9 15 5 8 1010.2 1008.6 0.0
11/10:30pm 26.7 28.4 21.7 74 3.4 NE 15 24 8 13 1010.4 1008.8 0.0
11/10:00pm 26.0 30.5 22.3 80 2.5 S 2 4 1 2 1009.3 1007.7 0.0
11/09:30pm 26.5 30.4 21.9 76 3.1 S 4 6 2 3 1009.0 1007.4 0.0
11/09:00pm 27.0 30.8 21.7 73 3.6 S 4 6 2 3 1008.7 1007.1 0.0
11/08:30pm 27.6 32.4 22.1 72 3.7 CALM 0 2 0 1 1008.2 1006.7 0.0
11/08:00pm 28.0 32.1 21.5 67 4.4 S 2 4 1 2 1007.9 1006.4 0.0
11/07:30pm 28.3 33.1 22.8 72 3.8 SSW 2 4 1 2 1007.7 1006.2 0.0
11/07:00pm 28.7 32.8 22.2 68 4.4 WNW 4 6 2 3 1007.3 1005.8 0.0
11/06:30pm 29.7 33.6 21.1 60 5.8 NNW 2 7 1 4 1007.4 1005.9 0.0
11/06:00pm 30.4 31.8 20.3 54 6.7 SE 13 24 7 13 1006.7 1005.1 0.0
11/05:30pm 30.5 32.0 21.3 58 6.2 SSE 15 26 8 14 1006.1 1004.5 0.0
11/05:00pm 32.2 33.5 21.7 54 7.2 SSE 17 30 9 16 1005.7 1004.1 0.0
11/04:30pm 32.0 33.7 20.9 52 7.5 S 13 24 7 13 1005.5 1003.9 0.0
11/04:00pm 33.9 37.3 22.0 49 8.2 SSE 7 15 4 8 1005.3 1003.7 0.0
11/03:30pm 32.4 34.8 22.2 55 7.0 SE 13 20 7 11 1005.6 1004.0 0.0
11/03:00pm 34.5 36.5 20.8 44 9.3 SSE 11 20 6 11 1005.7 1004.1 0.0
11/02:30pm 34.4 37.3 21.8 48 8.7 SE 9 20 5 11 1005.9 1004.3 0.0
11/02:00pm 34.1 36.0 19.7 42 9.6 SSE 9 15 5 8 1006.4 1004.8 0.0
11/01:30pm 32.5 33.1 19.4 46 8.7 SSE 15 22 8 12 1006.8 1005.2 0.0
11/01:00pm 33.2 36.0 20.4 47 8.6 SE 6 15 3 8 1007.2 1005.7 0.0
11/12:30pm 33.2 35.9 21.4 50 8.0 ESE 9 19 5 10 1007.6 1006.1 0.0
11/12:00pm 32.6 35.6 20.8 49 8.0 E 6 15 3 8 1007.9 1006.4 0.0
11/11:30am 31.8 34.6 20.4 51 7.6 ESE 6 11 3 6 1008.3 1006.8 0.0
11/11:00am 31.4 34.5 21.0 54 7.0 SE 6 11 3 6 1008.7 1007.1 0.0
11/10:30am 30.6 33.7 20.2 53 6.9 E 4 9 2 5 1008.9 1007.3 0.0
11/10:00am 29.6 33.3 20.7 58 5.9 SSW 2 6 1 3 1009.1 1007.5 0.0
11/09:30am 28.4 31.9 20.4 62 5.3 NNE 2 4 1 2 1009.3 1007.7 0.0
11/09:00am 27.9 31.8 21.2 67 4.5 NW 2 6 1 3 1009.7 1008.1 6.8
11/08:30am 26.6 29.6 20.9 71 3.8 WNW 6 9 3 5 1009.7 1008.1 6.8
11/08:00am 25.6 30.0 22.1 81 2.4 SSW 2 4 1 2 1009.4 1007.8 6.8
11/07:30am 24.3 28.9 21.8 86 1.7 CALM 0 2 0 1 1009.4 1007.8 6.8
11/07:00am 23.3 26.7 21.6 90 1.1 WSW 6 7 3 4 1009.1 1007.5 6.8
11/06:30am 23.0 27.0 21.3 90 1.1 SW 2 4 1 2 1009.0 1007.4 6.8
11/06:00am 23.0 27.3 21.1 89 1.3 CALM 0 0 0 0 1008.8 1007.2 6.8
11/05:30am 23.1 27.4 21.2 89 1.3 CALM 0 2 0 1 1008.7 1007.1 6.8
11/05:00am 23.2 27.6 21.3 89 1.3 CALM 0 0 0 0 1008.3 1006.8 6.8
11/04:30am 23.5 27.6 21.6 89 1.3 W 2 4 1 2 1007.9 1006.4 6.8
11/04:00am 23.6 27.8 21.7 89 1.3 WNW 2 6 1 3 1007.8 1006.3 6.8
11/03:30am 23.6 28.2 21.7 89 1.3 CALM 0 0 0 0 1007.9 1006.4 6.8
11/03:00am 23.7 27.8 21.6 88 1.4 N 2 4 1 2 1008.0 1006.5 6.8
11/02:30am 23.8 28.0 21.7 88 1.4 NNE 2 4 1 2 1008.1 1006.6 6.8
11/02:00am 24.0 28.3 21.9 88 1.4 NE 2 6 1 3 1008.1 1006.6 6.8
11/01:30am 24.2 29.0 22.1 88 1.4 CALM 0 0 0 0 1008.3 1006.8 6.8
11/01:00am 24.2 28.1 21.9 87 1.5 ENE 4 6 2 3 1008.4 1006.9 6.8
11/12:30am 24.4 29.2 22.1 87 1.5 CALM 0 0 0 0 1008.2 1006.7 6.8
11/12:00am 24.7 29.0 22.0 85 1.8 N 2 4 1 2 1008.3 1006.8 6.8
 
Date/Time
CST
Temp
°C
App
Temp
°C
Dew
Point
Rel
Hum
%
Delta-T
°C
Wind Press
QNH
hPa
Press
MSL
hPa
Rain
since 9 am
mm
Dir
 
Spd
km/h
Gust
km/h
Spd
kts
Gust
kts
10/11:30pm 24.8 29.3 22.3 86 1.7 NE 2 4 1 2 1008.8 1007.2 6.8
10/11:00pm 25.0 29.9 22.3 85 1.8 CALM 0 2 0 1 1008.8 1007.2 6.8
10/10:30pm 25.0 28.9 21.9 83 2.1 ENE 4 6 2 3 1008.8 1007.2 6.8
10/10:00pm 25.4 29.3 21.9 81 2.4 ENE 4 7 2 4 1008.5 1007.0 6.8
10/09:30pm 25.6 29.1 22.1 81 2.4 ENE 7 13 4 7 1008.0 1006.5 6.8
10/09:00pm 25.5 29.3 22.4 83 2.1 E 6 7 3 4 1007.9 1006.4 6.8
10/08:30pm 25.4 29.5 22.3 83 2.1 SE 4 6 2 3 1007.2 1005.7 6.8
10/08:00pm 26.0 31.2 22.9 83 2.1 CALM 0 2 0 1 1006.9 1005.3 6.8
10/07:30pm 26.3 31.4 22.6 80 2.5 CALM 0 0 0 0 1006.8 1005.2 6.8
10/07:00pm 26.7 30.5 21.7 74 3.4 E 4 7 2 4 1006.6 1005.0 6.8
10/06:30pm 26.8 30.4 22.4 77 3.0 SSE 7 15 4 8 1006.6 1005.0 6.8
10/06:00pm 27.0 30.8 22.4 76 3.1 ESE 6 13 3 7 1006.3 1004.7 6.8
10/05:30pm 26.7 31.4 23.4 82 2.3 ESE 4 11 2 6 1005.8 1004.2 6.8
10/05:00pm 25.2 27.9 21.3 79 2.6 N 9 13 5 7 1005.5 1003.9 6.4
10/04:30pm 29.4 29.8 19.1 54 6.7 SSE 15 24 8 13 1004.8 1003.2 0.0
10/04:17pm 31.0 31.0 18.0 45 8.4 SSE 15 41 8 22 1004.6 1003.0 0.0
10/04:00pm 36.2 37.8 20.8 40 10.5 ENE 13 19 7 10 1003.9 1002.3 0.0
10/03:30pm 34.8 37.7 21.1 44 9.4 ENE 7 11 4 6 1004.3 1002.7 0.0
10/03:00pm 33.3 33.5 19.4 44 9.2 NE 17 24 9 13 1004.6 1003.0 0.0
10/02:30pm 37.0 39.9 20.7 38 11.1 SSE 6 13 3 7 1004.9 1003.3 0.0
10/02:00pm 35.8 38.4 20.5 41 10.4 SSW 7 15 4 8 1005.5 1003.9 0.0
10/01:30pm 35.8 38.4 20.5 41 10.4 S 7 15 4 8 1006.0 1004.4 0.0
10/01:00pm 35.4 38.0 20.5 41 10.1 E 7 19 4 10 1006.6 1005.0 0.0
10/12:30pm 35.1 39.5 22.1 47 9.0 E 2 6 1 3 1006.9 1005.3 0.0
10/12:00pm 34.3 37.7 21.0 45 9.1 WNW 4 6 2 3 1007.3 1005.8 0.0
10/11:30am 34.1 38.3 22.5 50 8.0 N 4 6 2 3 1007.7 1006.2 0.0
10/11:00am 32.6 36.7 21.5 52 7.6 NE 2 6 1 3 1008.1 1006.6 0.0
10/10:30am 32.5 37.2 22.6 56 6.8 E 2 7 1 4 1008.3 1006.8 0.0
10/10:00am 32.0 36.2 22.4 57 6.6 N 4 9 2 5 1008.5 1007.0 0.0
10/09:30am 31.2 35.2 22.8 61 5.8 N 6 11 3 6 1008.7 1007.1 0.0
10/09:00am 30.3 34.5 22.5 63 5.4 NNE 4 7 2 4 1008.7 1007.1 0.0
10/08:30am 29.8 34.9 23.3 68 4.5 ENE 2 6 1 3 1008.9 1007.3 0.0
10/08:00am 27.7 31.6 22.9 75 3.3 ESE 7 11 4 6 1008.5 1007.0 0.0
10/07:30am 26.2 31.5 23.1 83 2.1 CALM 0 0 0 0 1007.9 1006.4 0.0
10/07:00am 24.5 29.6 22.6 89 1.3 CALM 0 0 0 0 1007.6 1006.1 0.0
10/06:30am 23.9 28.5 21.8 88 1.4 CALM 0 0 0 0 1007.2 1005.7 0.0
10/06:00am 24.2 29.0 22.1 88 1.4 CALM 0 0 0 0 1006.8 1005.2 0.0
10/05:30am 24.3 29.1 22.2 88 1.4 CALM 0 0 0 0 1006.5 1004.9 0.0
10/05:00am 24.4 29.3 22.3 88 1.4 CALM 0 2 0 1 1006.1 1004.5 0.0
10/04:30am 24.4 29.3 22.3 88 1.4 CALM 0 0 0 0 1006.0 1004.4 0.0
10/04:00am 24.6 29.6 22.5 88 1.4 CALM 0 0 0 0 1006.0 1004.4 0.0
10/03:30am 24.6 29.5 22.3 87 1.6 CALM 0 0 0 0 1006.2 1004.6 0.0
10/03:00am 24.9 30.0 22.6 87 1.6 CALM 0 0 0 0 1006.4 1004.8 0.0
10/02:30am 24.8 29.5 22.7 88 1.4 ESE 2 11 1 6 1006.6 1005.0 0.0
10/02:00am 25.0 30.1 22.7 87 1.6 CALM 0 0 0 0 1006.6 1005.0 0.0
10/01:30am 25.1 29.9 22.8 87 1.6 SW 2 4 1 2 1006.9 1005.3 0.0
10/01:00am 25.4 30.6 22.9 86 1.7 CALM 0 0 0 0 1007.0 1005.5 0.0
10/12:30am 25.5 30.7 22.8 85 1.8 CALM 0 0 0 0 1007.4 1005.9 0.0
10/12:00am 25.7 31.0 23.0 85 1.8 CALM 0 0 0 0 1007.6 1006.1 0.0
 
Date/Time
CST
Temp
°C
App
Temp
°C
Dew
Point
Rel
Hum
%
Delta-T
°C
Wind Press
QNH
hPa
Press
MSL
hPa
Rain
since 9 am
mm
Dir
 
Spd
km/h
Gust
km/h
Spd
kts
Gust
kts
09/11:30pm 26.0 31.3 23.1 84 2.0 CALM 0 0 0 0 1007.8 1006.3 0.0
09/11:00pm 26.2 31.5 23.1 83 2.1 CALM 0 0 0 0 1008.0 1006.5 0.0
09/10:30pm 26.4 31.8 23.3 83 2.1 CALM 0 0 0 0 1007.9 1006.4 0.0
09/10:00pm 26.9 32.4 23.4 81 2.4 CALM 0 0 0 0 1007.8 1006.3 0.0
09/09:30pm 27.2 32.7 23.4 80 2.6 CALM 0 0 0 0 1007.6 1006.1 0.0
09/09:00pm 27.6 32.5 23.0 76 3.2 SW 2 2 1 1 1007.3 1005.8 0.0
09/08:30pm 28.1 33.0 23.0 74 3.5 SW 2 2 1 1 1007.2 1005.7 0.0
09/08:00pm 29.0 33.3 22.0 66 4.8 SW 2 2 1 1 1006.9 1005.3 0.0
09/07:30pm 30.7 33.9 20.6 54 6.8 SW 4 4 2 2 1006.8 1005.2 0.0
09/07:00pm 33.6 36.6 20.0 44 9.1 SW 4 6 2 3 1006.2 1004.6 0.0
09/06:30pm 35.5 36.8 17.2 33 11.9 SW 6 9 3 5 1005.8 1004.2 0.0
09/06:00pm 35.7 37.3 17.9 35 11.7 S 6 13 3 7 1005.7 1004.1 0.0
09/05:30pm 36.0 37.7 18.1 34 11.8 S 6 11 3 6 1005.8 1004.2 0.0
09/05:00pm 36.3 37.7 17.4 32 12.3 SSE 6 9 3 5 1005.8 1004.2 0.0
09/04:30pm 36.1 37.6 17.7 33 12.1 SE 6 9 3 5 1006.0 1004.4 0.0
09/04:00pm 37.3 38.9 17.8 31 12.8 SSE 6 9 3 5 1006.1 1004.5 0.0
09/03:30pm 36.8 37.5 17.9 33 12.4 SSE 11 20 6 11 1006.4 1004.8 0.0
09/03:00pm 37.0 38.3 17.6 32 12.7 S 7 15 4 8 1006.5 1004.9 0.0
09/02:30pm 36.3 37.4 17.9 33 12.1 SSE 9 19 5 10 1006.9 1005.3 0.0
09/02:00pm 36.5 37.0 16.6 30 12.8 ESE 9 17 5 9 1007.2 1005.7 0.0
09/01:30pm 36.4 37.1 17.0 31 12.6 SE 9 15 5 8 1007.6 1006.1 0.0
09/01:00pm 36.0 36.0 17.2 33 12.2 SE 13 20 7 11 1008.1 1006.6 0.0
09/12:30pm 35.8 37.3 18.8 36 11.3 SSE 9 19 5 10 1008.5 1007.0 0.0
09/12:00pm 35.1 36.7 18.2 36 11.1 SSE 7 15 4 8 1009.1 1007.5 0.0
09/11:30am 34.8 36.6 19.6 40 10.2 SE 9 15 5 8 1009.5 1007.9 0.0
09/11:00am 34.5 36.7 19.3 40 10.1 S 6 11 3 6 1009.8 1008.2 0.0
09/10:30am 33.6 36.6 19.3 43 9.5 N 2 6 1 3 1010.1 1008.5 0.0
09/10:00am 33.4 36.3 19.8 44 9.1 WSW 4 7 2 4 1010.2 1008.6 0.0
09/09:30am 31.9 34.9 19.2 47 8.4 W 2 6 1 3 1010.2 1008.6 0.0
09/09:00am 31.3 34.6 19.9 50 7.6 WNW 2 4 1 2 1010.1 1008.5 0.0
09/08:30am 29.8 33.4 20.6 57 6.2 SSW 2 4 1 2 1009.9 1008.3 0.0
09/08:00am 28.2 31.9 21.5 67 4.5 SSE 4 6 2 3 1009.7 1008.1 0.0
09/07:30am 26.1 30.7 21.7 77 3.0 CALM 0 4 0 2 1009.6 1008.0 0.0
09/07:00am 24.2 28.4 21.7 86 1.7 S 2 4 1 2 1009.2 1007.6 0.0

Other Formats:

Comma delimited format used in spreadsheet applications
http://www.bom.gov.au/fwo/IDD60801/IDD60801.94234.axf

JavaScript Object Notation format (JSON) in row-major order
http://www.bom.gov.au/fwo/IDD60801/IDD60801.94234.json